.
WxDataArchive / Data Records for 2012-02-15
2012-02-14 February 2012 2012-02-16

Data Records for Wednesday, 15 February 2012

Time	Temp	Chill	HIndex	Humid	Dewpt	 Wind 	HiWind	WindDir	Rain 	Barom 
-----	----	-----	------	-----	-----	------	------	-------	-----	----- 
00:00	32.8	32.8	32.8	82	27.9	0	1	248	0.00	30.084 
00:05	32.8	32.8	32.8	82	27.9	0	1	248	0.00	30.084 
00:10	32.8	32.8	32.8	82	27.9	0	0	---	0.00	30.084 
00:15	32.8	32.8	32.8	82	27.9	0	0	---	0.00	30.086 
00:20	32.8	32.8	32.8	83	28.2	0	1	248	0.00	30.086 
00:25	32.8	32.8	32.8	83	28.2	0	1	248	0.00	30.086 
00:30	32.8	32.8	32.8	83	28.2	0	1	248	0.00	30.088 
00:35	32.8	32.8	32.8	83	28.2	0	1	248	0.00	30.088 
00:40	32.8	32.8	32.8	84	28.5	0	2	248	0.00	30.088 
00:45	32.8	32.8	32.8	84	28.5	0	1	248	0.00	30.089 
00:50	32.8	32.8	32.8	84	28.5	0	1	248	0.00	30.089 
00:55	32.8	32.8	32.8	84	28.5	0	1	248	0.00	30.089 
01:00	32.8	32.8	32.8	84	28.5	0	1	248	0.00	30.093 
01:05	32.8	32.8	32.8	84	28.5	0	3	248	0.00	30.093 
01:10	32.8	32.8	32.8	84	28.5	0	2	248	0.00	30.093 
01:15	32.8	32.8	32.8	84	28.5	0	1	248	0.00	30.093 
01:20	32.8	32.8	32.8	84	28.5	0	2	248	0.00	30.093 
01:25	32.8	32.8	32.8	84	28.5	0	1	248	0.00	30.093 
01:30	32.8	32.8	32.8	84	28.5	0	1	248	0.00	30.095 
01:35	32.7	32.7	32.7	84	28.4	0	1	248	0.00	30.095 
01:40	32.7	32.7	32.7	84	28.4	0	1	248	0.00	30.095 
01:45	32.7	32.7	32.7	84	28.4	0	0	---	0.00	30.095 
01:50	32.7	32.7	32.7	84	28.4	0	1	248	0.00	30.095 
01:55	32.7	32.7	32.7	84	28.4	0	2	248	0.00	30.095 
02:00	32.7	32.7	32.7	84	28.4	0	2	248	0.00	30.096 
02:05	32.7	32.7	32.7	84	28.4	0	1	248	0.00	30.096 
02:10	32.7	32.7	32.7	84	28.4	0	1	248	0.00	30.096 
02:15	32.7	32.7	32.7	83	28.1	0	1	248	0.00	30.099 
02:20	32.7	32.7	32.7	83	28.1	0	0	---	0.00	30.099 
02:25	32.7	32.7	32.7	83	28.1	0	0	---	0.00	30.099 
02:30	32.7	32.7	32.7	83	28.1	0	1	248	0.00	30.100 
02:35	32.7	32.7	32.7	83	28.1	0	1	248	0.00	30.100 
02:40	32.7	32.7	32.7	83	28.1	0	1	248	0.00	30.100 
02:45	32.7	32.7	32.7	83	28.1	0	1	248	0.00	30.111 
02:50	32.7	32.7	32.7	83	28.1	0	1	248	0.00	30.111 
02:55	32.7	32.7	32.7	83	28.1	0	1	248	0.00	30.111 
03:00	32.8	32.8	32.8	83	28.2	0	1	248	0.00	30.110 
03:05	32.8	32.8	32.8	83	28.2	0	2	248	0.00	30.110 
03:10	32.9	32.9	32.9	82	28.0	0	2	248	0.00	30.110 
03:15	32.9	32.9	32.9	82	28.0	0	1	248	0.00	30.110 
03:20	32.9	32.9	32.9	82	28.0	0	1	248	0.00	30.110 
03:25	32.9	32.9	32.9	82	28.0	0	2	248	0.00	30.110 
03:30	33.1	33.1	33.1	81	27.9	0	3	135	0.00	30.113 
03:35	33.1	33.1	33.1	81	27.9	0	2	248	0.00	30.113 
03:40	33.1	33.1	33.1	81	27.9	1	3	248	0.00	30.113 
03:45	33.2	33.2	33.2	81	28.0	0	3	248	0.00	30.116 
03:50	33.2	33.2	33.2	81	28.0	0	2	248	0.00	30.116 
03:55	33.4	33.4	33.4	81	28.2	0	2	248	0.00	30.116 
04:00	33.4	33.4	33.4	81	28.2	0	2	248	0.00	30.117 
04:05	33.4	33.4	33.4	80	27.9	0	1	248	0.00	30.117 
04:10	33.4	33.4	33.4	80	27.9	1	3	248	0.00	30.117 
04:15	33.4	33.4	33.4	80	27.9	0	3	248	0.00	30.127 
04:20	33.4	33.4	33.4	80	27.9	1	3	225	0.00	30.127 
04:25	33.4	33.4	33.4	80	27.9	1	3	248	0.00	30.127 
04:30	33.4	33.4	33.4	80	27.9	1	4	248	0.00	30.134 
04:35	33.4	33.4	33.4	80	27.9	1	4	248	0.00	30.134 
04:40	33.4	33.4	33.4	80	27.9	1	4	225	0.00	30.134 
04:45	33.4	33.4	33.4	80	27.9	1	5	248	0.00	30.145 
04:50	33.2	33.2	33.2	79	27.4	2	4	248	0.00	30.145 
04:55	33.2	33.2	33.2	79	27.4	1	7	248	0.00	30.145 
05:00	33.2	33.2	33.2	79	27.4	1	5	248	0.00	30.148 
05:05	33.1	33.1	33.1	79	27.3	1	5	248	0.00	30.148 
05:10	33.1	33.1	33.1	79	27.3	0	3	248	0.00	30.148 
05:15	33.1	33.1	33.1	79	27.3	1	4	248	0.00	30.148 
05:20	33.1	33.1	33.1	79	27.3	0	2	225	0.00	30.148 
05:25	33.1	33.1	33.1	79	27.3	0	2	225	0.00	30.148 
05:30	33.1	33.1	33.1	80	27.6	0	2	225	0.00	30.153 
05:35	33.1	33.1	33.1	80	27.6	0	1	225	0.00	30.153 
05:40	32.9	32.9	32.9	80	27.4	0	2	225	0.00	30.153 
05:45	32.9	32.9	32.9	80	27.4	0	1	225	0.00	30.158 
05:50	32.9	32.9	32.9	80	27.4	0	2	225	0.00	30.158 
05:55	32.9	32.9	32.9	80	27.4	0	1	225	0.00	30.158 
06:00	32.9	32.9	32.9	81	27.7	0	2	225	0.00	30.163 
06:05	32.9	32.9	32.9	81	27.7	0	2	225	0.00	30.163 
06:10	33.1	33.1	33.1	81	27.9	0	1	225	0.00	30.163 
06:15	33.1	33.1	33.1	81	27.9	0	2	225	0.00	30.166 
06:20	32.9	32.9	32.9	81	27.7	0	2	225	0.00	30.166 
06:25	33.1	33.1	33.1	82	28.2	0	1	225	0.00	30.166 
06:30	33.1	33.1	33.1	82	28.2	0	2	270	0.00	30.165 
06:35	33.1	33.1	33.1	82	28.2	0	2	270	0.00	30.165 
06:40	33.1	33.1	33.1	82	28.2	0	2	270	0.00	30.165 
06:45	33.1	33.1	33.1	83	28.5	0	1	270	0.00	30.166 
06:50	33.1	33.1	33.1	83	28.5	0	3	270	0.00	30.166 
06:55	33.1	33.1	33.1	83	28.5	0	1	90	0.00	30.166 
07:00	33.1	33.1	33.1	83	28.5	0	1	90	0.00	30.170 
07:05	33.1	33.1	33.1	83	28.5	0	3	90	0.00	30.170 
07:10	33.1	33.1	33.1	83	28.5	0	1	90	0.00	30.170 
07:15	33.1	33.1	33.1	84	28.8	0	1	90	0.00	30.180 
07:20	33.1	33.1	33.1	84	28.8	0	1	90	0.00	30.180 
07:25	33.1	33.1	33.1	84	28.8	0	2	270	0.00	30.180 
07:30	33.1	33.1	33.1	84	28.8	0	2	270	0.00	30.180 
07:35	33.1	33.1	33.1	84	28.8	0	2	270	0.00	30.180 
07:40	33.1	33.1	33.1	84	28.8	0	2	270	0.00	30.180 
07:45	33.1	33.1	33.1	84	28.8	0	2	270	0.00	30.183 
07:50	33.1	33.1	33.1	84	28.8	0	2	270	0.00	30.183 
07:55	33.2	33.2	33.2	84	28.9	0	4	270	0.00	30.183 
08:00	33.2	33.2	33.2	84	28.9	0	2	248	0.00	30.187 
08:05	33.2	33.2	33.2	84	28.9	0	2	248	0.00	30.187 
08:10	33.4	33.4	33.4	84	29.1	1	3	248	0.00	30.187 
08:15	33.4	33.4	33.4	83	28.8	0	3	248	0.00	30.194 
08:20	33.5	33.5	33.5	83	28.9	0	2	248	0.00	30.194 
08:25	33.5	33.5	33.5	83	28.9	0	2	248	0.00	30.194 
08:30	33.7	33.7	33.7	83	29.1	0	2	248	0.00	30.203 
08:35	33.8	33.8	33.8	83	29.2	1	3	270	0.00	30.203 
08:40	33.8	33.8	33.8	82	28.9	1	4	270	0.00	30.203 
08:45	34.0	34.0	34.0	82	29.1	1	3	135	0.00	30.211 
08:50	34.1	34.1	34.1	82	29.2	1	3	248	0.00	30.211 
08:55	34.1	34.1	34.1	81	28.9	1	3	248	0.00	30.211 
09:00	34.3	34.3	34.3	81	29.1	1	4	90	0.00	30.221 
09:05	34.3	34.3	34.3	81	29.1	1	4	248	0.00	30.221 
09:10	34.4	34.4	34.4	80	28.9	1	3	68	0.00	30.221 
09:15	34.4	34.4	34.4	80	28.9	0	3	270	0.00	30.221 
09:20	34.4	34.4	34.4	80	28.9	0	3	270	0.00	30.221 
09:25	34.6	34.6	34.6	80	29.1	1	5	270	0.00	30.221 
09:30	34.7	34.7	34.7	80	29.2	0	3	248	0.00	30.215 
09:35	34.7	34.7	34.7	80	29.2	0	2	248	0.00	30.215 
09:40	34.7	34.7	34.7	80	29.2	1	4	90	0.00	30.215 
09:45	34.9	34.9	34.9	80	29.4	1	3	90	0.00	30.208 
09:50	35.0	35.0	35.0	80	29.5	1	6	135	0.00	30.208 
09:55	35.2	35.2	35.2	79	29.4	1	3	135	0.00	30.208 
10:00	35.3	35.3	35.3	79	29.4	1	4	22	0.00	30.208 
10:05	35.3	35.3	35.3	79	29.4	1	3	68	0.00	30.208 
10:10	35.3	35.3	35.3	79	29.4	1	4	68	0.00	30.208 
10:15	35.5	35.5	35.5	79	29.6	1	2	112	0.01	30.199 
10:20	35.9	35.9	35.9	78	29.7	0	3	112	0.00	30.199 
10:25	36.0	36.0	36.0	77	29.5	1	4	112	0.00	30.199 
10:30	36.2	36.2	36.2	77	29.7	1	3	0	0.00	30.207 
10:35	36.5	36.5	36.5	77	30.0	1	3	90	0.00	30.207 
10:40	36.6	36.6	36.6	77	30.1	1	2	90	0.00	30.207 
10:45	36.9	36.9	36.9	77	30.4	1	4	135	0.00	30.202 
10:50	37.0	37.0	37.0	76	30.2	1	3	112	0.01	30.202 
10:55	37.2	37.2	37.2	76	30.3	1	3	112	0.00	30.202 
11:00	37.3	37.3	37.3	76	30.4	1	5	112	0.00	30.205 
11:05	37.5	37.5	37.5	75	30.3	1	4	90	0.00	30.205 
11:10	37.3	37.3	37.3	76	30.4	1	4	90	0.00	30.205 
11:15	37.2	37.2	37.2	76	30.3	1	4	90	0.00	30.205 
11:20	37.2	37.2	37.2	77	30.7	1	4	90	0.00	30.205 
11:25	37.2	37.2	37.2	77	30.7	1	4	112	0.00	30.205 
11:30	37.2	37.2	37.2	77	30.7	2	7	90	0.01	30.196 
11:35	37.3	37.3	37.3	77	30.8	2	5	135	0.00	30.196 
11:40	37.5	37.5	37.5	77	31.0	2	5	135	0.00	30.196 
11:45	37.6	37.6	37.6	77	31.1	1	4	270	0.00	30.190 
11:50	37.6	37.6	37.6	77	31.1	2	9	90	0.00	30.190 
11:55	37.8	37.8	37.8	77	31.2	1	3	112	0.00	30.190 
12:00	38.0	38.0	38.0	77	31.4	2	6	68	0.00	30.178 
12:05	38.3	38.3	38.3	76	31.4	2	4	112	0.00	30.178 
12:10	38.3	38.3	38.3	76	31.4	1	4	90	0.00	30.178 
12:15	38.3	38.3	38.3	76	31.4	2	4	112	0.00	30.171 
12:20	38.3	38.3	38.3	77	31.7	1	3	112	0.00	30.171 
12:25	38.5	38.5	38.5	76	31.6	1	4	112	0.00	30.171 
12:30	38.5	38.5	38.5	76	31.6	1	3	270	0.00	30.169 
12:35	38.6	38.6	38.6	76	31.7	1	4	112	0.00	30.169 
12:40	38.8	38.8	38.8	75	31.6	2	5	112	0.00	30.169 
12:45	39.1	39.1	39.1	75	31.9	2	4	112	0.00	30.157 
12:50	39.2	39.2	39.2	75	32.0	2	5	112	0.01	30.157 
12:55	39.3	39.3	39.3	75	32.0	2	4	68	0.00	30.157 
13:00	39.3	39.3	39.3	74	31.7	1	4	135	0.00	30.157 
13:05	39.5	39.5	39.5	74	31.9	1	4	112	0.00	30.157 
13:10	39.3	39.3	39.3	74	31.7	2	5	68	0.00	30.157 
13:15	39.3	39.3	39.3	75	32.0	1	4	90	0.00	30.157 
13:20	39.3	39.3	39.3	75	32.0	1	5	68	0.00	30.157 
13:25	39.3	39.3	39.3	75	32.0	2	5	68	0.00	30.157 
13:30	39.5	39.5	39.5	75	32.2	1	3	135	0.00	30.160 
13:35	39.5	39.5	39.5	75	32.2	1	3	135	0.00	30.160 
13:40	39.8	39.8	39.8	75	32.5	1	3	135	0.00	30.160 
13:45	40.2	40.2	40.2	75	32.9	1	3	22	0.00	30.156 
13:50	40.5	40.5	40.5	74	32.9	1	4	135	0.00	30.156 
13:55	40.5	40.5	40.5	73	32.5	2	5	112	0.00	30.156 
14:00	40.2	40.2	40.2	73	32.2	2	6	90	0.00	30.153 
14:05	40.1	40.1	40.1	74	32.5	2	5	112	0.00	30.153 
14:10	40.1	40.1	40.1	74	32.5	1	7	112	0.00	30.153 
14:15	40.1	40.1	40.1	74	32.5	1	4	135	0.00	30.148 
14:20	40.1	40.1	40.1	74	32.5	2	4	112	0.00	30.148 
14:25	39.9	39.9	39.9	75	32.6	2	7	112	0.00	30.148 
14:30	40.1	40.1	40.1	75	32.8	1	4	158	0.00	30.144 
14:35	40.2	40.2	40.2	75	32.9	1	4	90	0.00	30.144 
14:40	40.2	40.2	40.2	75	32.9	2	5	90	0.00	30.144 
14:45	40.1	40.1	40.1	75	32.8	1	3	135	0.00	30.142 
14:50	40.1	40.1	40.1	76	33.2	2	6	90	0.00	30.142 
14:55	40.1	40.1	40.1	76	33.2	1	4	90	0.00	30.142 
15:00	39.9	39.9	39.9	76	33.0	1	4	90	0.00	30.137 
15:05	40.1	40.1	40.1	76	33.2	1	3	90	0.00	30.137 
15:10	40.2	40.2	40.2	77	33.6	1	4	112	0.00	30.137 
15:15	40.3	40.3	40.3	76	33.3	2	5	135	0.00	30.137 
15:20	40.3	40.3	40.3	77	33.7	1	3	135	0.00	30.137 
15:25	40.5	40.5	40.5	77	33.9	1	3	135	0.00	30.137 
15:30	40.8	40.8	40.8	76	33.8	1	3	135	0.00	30.135 
15:35	40.9	40.9	40.9	76	33.9	2	4	90	0.00	30.135 
15:40	40.9	40.9	40.9	75	33.6	1	4	90	0.00	30.135 
15:45	40.9	40.9	40.9	75	33.6	2	4	90	0.00	30.130 
15:50	41.1	41.1	41.1	75	33.8	2	5	112	0.00	30.130 
15:55	40.9	40.9	40.9	76	33.9	2	4	112	0.00	30.130 
16:00	40.9	40.9	40.9	76	33.9	1	4	90	0.00	30.126 
16:05	40.8	40.8	40.8	76	33.8	1	4	112	0.00	30.126 
16:10	40.8	40.8	40.8	76	33.8	1	5	90	0.00	30.126 
16:15	40.6	40.6	40.6	77	34.0	1	3	135	0.00	30.132 
16:20	40.6	40.6	40.6	76	33.6	0	2	68	0.00	30.132 
16:25	40.6	40.6	40.6	76	33.6	0	4	112	0.00	30.132 
16:30	40.6	40.6	40.6	77	34.0	0	2	158	0.00	30.138 
16:35	40.6	40.6	40.6	77	34.0	1	4	112	0.00	30.138 
16:40	40.6	40.6	40.6	78	34.3	0	2	112	0.00	30.138 
16:45	40.6	40.6	40.6	79	34.6	0	3	112	0.00	30.134 
16:50	40.5	40.5	40.5	80	34.8	0	1	112	0.00	30.134 
16:55	40.5	40.5	40.5	81	35.1	0	2	158	0.00	30.134 
17:00	40.3	40.3	40.3	81	34.9	0	2	158	0.00	30.134 
17:05	40.2	40.2	40.2	81	34.8	0	1	158	0.00	30.134 
17:10	40.1	40.1	40.1	83	35.4	0	1	158	0.00	30.134 
17:15	39.9	39.9	39.9	83	35.2	0	1	158	0.00	30.127 
17:20	39.8	39.8	39.8	84	35.4	0	1	158	0.01	30.127 
17:25	39.6	39.6	39.6	84	35.2	0	1	158	0.00	30.127 
17:30	39.5	39.5	39.5	85	35.4	0	1	158	0.00	30.126 
17:35	39.3	39.3	39.3	85	35.2	0	0	---	0.00	30.126 
17:40	39.2	39.2	39.2	86	35.4	0	1	158	0.00	30.126 
17:45	39.2	39.2	39.2	87	35.7	0	2	158	0.00	30.124 
17:50	39.1	39.1	39.1	87	35.6	0	1	158	0.00	30.124 
17:55	38.9	38.9	38.9	88	35.7	0	1	158	0.00	30.124 
18:00	38.8	38.8	38.8	88	35.6	0	1	158	0.00	30.125 
18:05	38.6	38.6	38.6	88	35.4	0	2	158	0.00	30.125 
18:10	38.6	38.6	38.6	89	35.6	1	2	158	0.00	30.125 
18:15	38.5	38.5	38.5	89	35.5	0	2	158	0.00	30.121 
18:20	38.5	38.5	38.5	90	35.8	1	2	158	0.00	30.121 
18:25	38.5	38.5	38.5	90	35.8	1	3	158	0.01	30.121 
18:30	38.5	38.5	38.5	90	35.8	0	2	135	0.00	30.112 
18:35	38.3	38.3	38.3	90	35.6	0	1	135	0.00	30.112 
18:40	38.2	38.2	38.2	90	35.5	0	1	135	0.00	30.112 
18:45	38.2	38.2	38.2	91	35.8	0	1	135	0.00	30.122 
18:50	38.2	38.2	38.2	91	35.8	0	2	135	0.00	30.122 
18:55	38.2	38.2	38.2	91	35.8	1	2	135	0.01	30.122 
19:00	38.0	38.0	38.0	91	35.6	0	1	135	0.00	30.111 
19:05	38.0	38.0	38.0	91	35.6	0	1	135	0.00	30.111 
19:10	38.0	38.0	38.0	92	35.9	0	1	135	0.00	30.111 
19:15	37.9	37.9	37.9	92	35.8	0	2	135	0.01	30.114 
19:20	37.9	37.9	37.9	92	35.8	0	1	135	0.00	30.114 
19:25	37.9	37.9	37.9	92	35.8	0	2	135	0.00	30.114 
19:30	37.9	37.9	37.9	92	35.8	0	2	135	0.00	30.111 
19:35	37.9	37.9	37.9	92	35.8	0	2	135	0.01	30.111 
19:40	37.9	37.9	37.9	92	35.8	0	3	135	0.00	30.111 
19:45	37.9	37.9	37.9	92	35.8	1	3	135	0.00	30.102 
19:50	37.9	37.9	37.9	92	35.8	1	2	158	0.00	30.102 
19:55	37.9	37.9	37.9	92	35.8	1	3	135	0.00	30.102 
20:00	37.9	37.9	37.9	92	35.8	0	2	112	0.00	30.100 
20:05	38.0	38.0	38.0	93	36.2	0	2	112	0.00	30.100 
20:10	38.0	38.0	38.0	93	36.2	0	1	112	0.00	30.100 
20:15	38.0	38.0	38.0	93	36.2	0	3	112	0.01	30.096 
20:20	38.0	38.0	38.0	93	36.2	0	1	112	0.00	30.096 
20:25	38.0	38.0	38.0	93	36.2	1	3	112	0.01	30.096 
20:30	38.0	38.0	38.0	93	36.2	1	3	112	0.00	30.081 
20:35	38.0	38.0	38.0	93	36.2	1	2	112	0.00	30.081 
20:40	37.9	37.9	37.9	93	36.1	1	3	112	0.01	30.081 
20:45	37.9	37.9	37.9	93	36.1	1	2	135	0.00	30.079 
20:50	37.9	37.9	37.9	93	36.1	0	2	135	0.00	30.079 
20:55	37.9	37.9	37.9	93	36.1	0	4	112	0.01	30.079 
21:00	37.9	37.9	37.9	93	36.1	1	3	112	0.00	30.065 
21:05	37.9	37.9	37.9	93	36.1	0	3	112	0.00	30.065 
21:10	37.9	37.9	37.9	93	36.1	1	2	112	0.01	30.065 
21:15	38.0	38.0	38.0	94	36.4	1	3	112	0.00	30.064 
21:20	38.0	38.0	38.0	94	36.4	0	2	112	0.00	30.064 
21:25	38.0	38.0	38.0	94	36.4	0	2	112	0.00	30.064 
21:30	38.0	38.0	38.0	94	36.4	0	2	135	0.00	30.062 
21:35	38.0	38.0	38.0	94	36.4	0	1	135	0.00	30.062 
21:40	38.0	38.0	38.0	94	36.4	0	1	135	0.00	30.062 
21:45	38.0	38.0	38.0	94	36.4	0	2	135	0.00	30.057 
21:50	38.0	38.0	38.0	94	36.4	0	3	135	0.00	30.057 
21:55	38.2	38.2	38.2	94	36.6	1	3	135	0.00	30.057 
22:00	38.2	38.2	38.2	94	36.6	1	3	135	0.00	30.050 
22:05	38.3	38.3	38.3	94	36.7	0	2	112	0.00	30.050 
22:10	38.3	38.3	38.3	94	36.7	0	2	135	0.00	30.050 
22:15	38.3	38.3	38.3	94	36.7	0	2	135	0.00	30.035 
22:20	38.3	38.3	38.3	94	36.7	0	1	135	0.00	30.035 
22:25	38.3	38.3	38.3	94	36.7	0	1	135	0.01	30.035 
22:30	38.3	38.3	38.3	94	36.7	0	2	135	0.00	30.037 
22:35	38.3	38.3	38.3	94	36.7	0	2	135	0.00	30.037 
22:40	38.3	38.3	38.3	94	36.7	0	1	135	0.00	30.037 
22:45	38.5	38.5	38.5	94	36.9	0	1	135	0.00	30.032 
22:50	38.5	38.5	38.5	94	36.9	0	1	135	0.00	30.032 
22:55	38.5	38.5	38.5	94	36.9	0	2	135	0.00	30.032 
23:00	38.6	38.6	38.6	94	37.0	0	2	135	0.00	30.036 
23:05	38.6	38.6	38.6	94	37.0	0	2	135	0.00	30.036 
23:10	38.8	38.8	38.8	94	37.2	0	2	135	0.00	30.036 
23:15	38.8	38.8	38.8	93	37.0	0	1	135	0.00	30.039 
23:20	38.8	38.8	38.8	93	37.0	0	2	135	0.00	30.039 
23:25	38.9	38.9	38.9	93	37.1	0	2	135	0.00	30.039 
23:30	38.9	38.9	38.9	93	37.1	0	0	---	0.00	30.036 
23:35	38.9	38.9	38.9	93	37.1	0	2	112	0.00	30.036 
23:40	38.9	38.9	38.9	94	37.3	0	1	112	0.00	30.036 
23:45	39.1	39.1	39.1	94	37.5	0	0	---	0.01	30.034 
23:50	39.1	39.1	39.1	94	37.5	0	1	112	0.00	30.034 
23:55	39.1	39.1	39.1	94	37.5	0	1	112	0.00	30.034 

CoCoRaHS
IN-AL-39
A2 Web Hosting
Creative Commons License
GoDaddy
search engine by freefind advanced

loaded 2018-11-14 03:40:51 • last modified 2010-11-18 10:43:29
Privacy PolicyDisclaimer
• wx.awcolley.com is powered by PmWiki v.2002016 •
• all content (unless otherwise noted) © 2018 A W Colley